createdAt,value
2022-09-24T00:00:13.431Z,11.63
2022-09-24T00:03:14.859Z,11.61
2022-09-24T00:06:17.504Z,11.62
2022-09-24T00:09:21.476Z,11.60
2022-09-24T00:12:22.845Z,11.58
2022-09-24T00:15:24.203Z,11.57
2022-09-24T00:18:25.529Z,11.58
2022-09-24T00:21:30.325Z,11.56
2022-09-24T00:24:31.646Z,11.50
2022-09-24T00:27:33.011Z,11.49
2022-09-24T00:30:34.594Z,11.49
2022-09-24T00:33:35.989Z,11.48
2022-09-24T00:36:37.581Z,11.49
2022-09-24T00:39:38.903Z,11.48
2022-09-24T00:42:40.286Z,11.45
2022-09-24T00:45:41.647Z,11.43
2022-09-24T00:48:45.130Z,11.42
2022-09-24T00:51:52.219Z,11.34
2022-09-24T00:54:54.363Z,11.32
2022-09-24T00:57:58.592Z,11.35
2022-09-24T01:01:07.688Z,11.33
2022-09-24T01:04:10.998Z,11.30
2022-09-24T01:07:12.353Z,11.18
2022-09-24T01:10:15.043Z,11.11
2022-09-24T01:13:26.431Z,11.07
2022-09-24T01:16:52.324Z,11.02
2022-09-24T01:20:27.787Z,10.99
2022-09-24T01:23:32.064Z,11.00
2022-09-24T01:26:36.284Z,11.03
2022-09-24T01:30:11.184Z,11.01
2022-09-24T01:33:18.722Z,10.97
2022-09-24T01:36:21.952Z,10.96
2022-09-24T01:39:24.508Z,10.91
2022-09-24T01:42:28.450Z,10.78
2022-09-24T01:45:31.421Z,10.72
2022-09-24T01:48:36.485Z,10.80
2022-09-24T01:51:41.694Z,10.86
2022-09-24T01:54:45.778Z,10.92
2022-09-24T01:57:53.576Z,10.87
2022-09-24T02:01:03.641Z,10.82
2022-09-24T02:04:17.807Z,10.71
2022-09-24T02:07:27.302Z,10.69
2022-09-24T02:10:32.302Z,10.67
2022-09-24T02:13:45.136Z,10.66
2022-09-24T02:16:48.329Z,10.60
2022-09-24T02:19:50.411Z,10.63
2022-09-24T02:22:55.320Z,10.65
2022-09-24T02:25:59.533Z,10.66
2022-09-24T02:29:00.894Z,10.62
2022-09-24T02:32:04.606Z,10.62
2022-09-24T02:35:09.402Z,10.64
2022-09-24T02:38:18.415Z,10.65
2022-09-24T02:41:22.279Z,10.70
2022-09-24T02:44:24.033Z,10.74
2022-09-24T02:47:26.891Z,10.81
2022-09-24T02:50:28.294Z,10.83
2022-09-24T02:53:30.671Z,10.83
2022-09-24T02:56:32.525Z,10.77
2022-09-24T02:59:33.996Z,10.81
2022-09-24T03:02:35.483Z,10.83
2022-09-24T03:05:36.879Z,10.82
2022-09-24T03:08:38.196Z,10.78
2022-09-24T03:11:39.745Z,10.72
2022-09-24T03:14:41.067Z,10.71
2022-09-24T03:17:42.392Z,10.68
2022-09-24T03:20:43.716Z,10.64
2022-09-24T03:23:45.471Z,10.67
2022-09-24T03:26:46.808Z,10.64
2022-09-24T03:29:48.147Z,10.64
2022-09-24T03:32:49.510Z,10.61
2022-09-24T03:35:55.460Z,10.63
2022-09-24T03:38:57.455Z,10.63
2022-09-24T03:41:58.793Z,10.65
2022-09-24T03:45:00.285Z,10.64
2022-09-24T03:48:01.905Z,10.61
2022-09-24T03:51:08.983Z,10.61
2022-09-24T03:54:11.042Z,10.60
2022-09-24T03:57:12.495Z,10.61
2022-09-24T04:00:14.290Z,10.61
2022-09-24T04:03:15.669Z,10.58
2022-09-24T04:06:20.907Z,10.57
2022-09-24T04:09:23.518Z,10.55
2022-09-24T04:12:24.821Z,10.55
2022-09-24T04:15:26.158Z,10.54
2022-09-24T04:18:27.471Z,10.53
2022-09-24T04:21:28.831Z,10.50
2022-09-24T04:24:30.163Z,10.48
2022-09-24T04:27:31.490Z,10.47
2022-09-24T04:30:34.517Z,10.45
2022-09-24T04:33:35.886Z,10.44
2022-09-24T04:36:37.240Z,10.44
2022-09-24T04:39:38.582Z,10.45
2022-09-24T04:42:40.355Z,10.44
2022-09-24T04:45:42.843Z,10.41
2022-09-24T04:48:44.401Z,10.41
2022-09-24T04:51:45.736Z,10.41
2022-09-24T04:54:47.068Z,10.42
2022-09-24T04:57:48.648Z,10.39
2022-09-24T05:00:49.973Z,10.38
2022-09-24T05:03:51.324Z,10.40
2022-09-24T05:06:52.644Z,10.39
2022-09-24T05:09:53.980Z,10.39
2022-09-24T05:12:55.360Z,10.36
2022-09-24T05:15:56.759Z,10.37
2022-09-24T05:18:58.128Z,10.37
2022-09-24T05:21:59.468Z,10.35
2022-09-24T05:25:00.789Z,10.37
2022-09-24T05:28:02.118Z,10.34
2022-09-24T05:31:03.545Z,10.34
2022-09-24T05:34:04.945Z,10.33
2022-09-24T05:37:06.283Z,10.34
2022-09-24T05:40:08.150Z,10.36
2022-09-24T05:43:09.550Z,10.36
2022-09-24T05:46:10.954Z,10.35
2022-09-24T05:49:12.322Z,10.34
2022-09-24T05:52:13.634Z,10.36
2022-09-24T05:55:15.035Z,10.37
2022-09-24T05:58:16.486Z,10.37
2022-09-24T06:01:17.843Z,10.39
2022-09-24T06:04:19.178Z,10.41
2022-09-24T06:07:20.863Z,10.45
2022-09-24T06:10:22.207Z,10.44
2022-09-24T06:13:23.516Z,10.50
2022-09-24T06:16:24.955Z,10.48
2022-09-24T06:19:26.279Z,10.53
2022-09-24T06:22:28.950Z,10.56
2022-09-24T06:25:31.087Z,10.56
2022-09-24T06:28:32.427Z,10.60
2022-09-24T06:31:33.890Z,10.58
2022-09-24T06:34:35.244Z,10.58
2022-09-24T06:37:36.627Z,10.57
2022-09-24T06:40:38.331Z,10.59
2022-09-24T06:43:39.816Z,10.57
2022-09-24T06:46:41.240Z,10.55
2022-09-24T06:49:45.652Z,10.57
2022-09-24T06:52:47.037Z,10.56
2022-09-24T06:55:48.428Z,10.57
2022-09-24T06:58:49.784Z,10.59
2022-09-24T07:01:51.154Z,10.60
2022-09-24T07:04:52.558Z,10.63
2022-09-24T07:07:53.925Z,10.68
2022-09-24T07:10:55.316Z,10.73
2022-09-24T07:13:56.678Z,10.80
2022-09-24T07:16:58.036Z,10.84
2022-09-24T07:19:59.405Z,10.87
2022-09-24T07:23:00.778Z,10.93
2022-09-24T07:26:02.106Z,10.95
2022-09-24T07:29:03.780Z,10.99
2022-09-24T07:32:05.657Z,11.03
2022-09-24T07:35:07.354Z,11.04
2022-09-24T07:38:11.305Z,11.07
2022-09-24T07:41:12.655Z,11.12
2022-09-24T07:44:14.175Z,11.16
2022-09-24T07:47:15.845Z,11.19
2022-09-24T07:50:17.221Z,11.23
2022-09-24T07:53:18.570Z,11.30
2022-09-24T07:56:19.955Z,11.29
2022-09-24T07:59:21.310Z,11.36
2022-09-24T08:02:22.689Z,11.45
2022-09-24T08:05:24.057Z,11.56
2022-09-24T08:08:25.850Z,11.58
2022-09-24T08:11:27.484Z,11.63
2022-09-24T08:14:28.839Z,11.79
2022-09-24T08:17:31.298Z,11.86
2022-09-24T08:20:33.449Z,11.89
2022-09-24T08:23:35.674Z,11.78
2022-09-24T08:26:37.027Z,11.88
2022-09-24T08:29:38.399Z,12.01
2022-09-24T08:32:39.755Z,12.03
2022-09-24T08:35:41.192Z,12.01
2022-09-24T08:38:42.556Z,12.02
2022-09-24T08:41:54.676Z,12.14
2022-09-24T08:44:58.372Z,12.08
2022-09-24T08:48:19.748Z,12.12
2022-09-24T08:51:22.525Z,12.16
2022-09-24T08:54:27.822Z,12.24
2022-09-24T08:57:33.805Z,12.35
2022-09-24T09:00:46.009Z,12.47
2022-09-24T09:03:56.116Z,12.46
2022-09-24T09:07:21.605Z,12.44
2022-09-24T09:10:27.449Z,12.40
2022-09-24T09:13:45.032Z,12.38
2022-09-24T09:16:55.257Z,12.23
2022-09-24T09:20:00.185Z,12.23
2022-09-24T09:23:16.561Z,12.38
2022-09-24T09:26:19.278Z,12.56
2022-09-24T09:29:25.547Z,12.65
2022-09-24T09:32:35.801Z,12.68
2022-09-24T09:35:49.300Z,12.72
2022-09-24T09:38:59.750Z,12.65
2022-09-24T09:42:22.398Z,12.56
2022-09-24T09:46:17.021Z,12.63
2022-09-24T09:49:18.414Z,12.92
2022-09-24T09:52:23.476Z,13.01
2022-09-24T09:55:28.831Z,13.01
2022-09-24T09:58:45.651Z,12.94
2022-09-24T10:01:50.111Z,13.10
2022-09-24T10:04:57.843Z,13.14
2022-09-24T10:07:59.203Z,13.26
2022-09-24T10:11:02.168Z,13.25
2022-09-24T10:14:05.527Z,13.09
2022-09-24T10:17:07.049Z,12.99
2022-09-24T10:20:16.897Z,12.96
2022-09-24T10:23:25.573Z,12.86
2022-09-24T10:26:45.118Z,12.73
2022-09-24T10:29:47.081Z,12.70
2022-09-24T10:32:57.169Z,12.62
2022-09-24T10:36:22.899Z,12.54
2022-09-24T10:39:24.264Z,12.51
2022-09-24T10:42:28.778Z,12.52
2022-09-24T10:45:45.176Z,12.68
2022-09-24T10:48:56.192Z,12.84
2022-09-24T10:52:39.478Z,12.92
2022-09-24T10:56:23.384Z,12.92
2022-09-24T10:59:47.206Z,13.10
2022-09-24T11:03:03.849Z,13.13
2022-09-24T11:06:19.613Z,13.15
2022-09-24T11:09:46.723Z,13.29
2022-09-24T11:13:25.803Z,13.28
2022-09-24T11:17:04.725Z,13.43
2022-09-24T11:20:14.086Z,13.65
2022-09-24T11:23:36.655Z,13.75
2022-09-24T11:27:08.226Z,13.61
2022-09-24T11:30:16.008Z,13.90
2022-09-24T11:33:58.619Z,13.59
2022-09-24T11:37:18.602Z,13.60
2022-09-24T11:40:34.820Z,13.65
2022-09-24T11:44:17.972Z,13.58
2022-09-24T11:47:28.298Z,13.55
2022-09-24T11:50:51.218Z,13.57
2022-09-24T11:54:07.000Z,13.60
2022-09-24T11:57:13.743Z,13.63
2022-09-24T12:00:18.114Z,13.71
2022-09-24T12:03:48.547Z,13.74
2022-09-24T12:07:02.584Z,13.73
2022-09-24T12:10:07.351Z,13.52
2022-09-24T12:13:18.876Z,13.49
2022-09-24T12:16:24.082Z,13.59
2022-09-24T12:19:32.620Z,13.67
2022-09-24T12:22:37.726Z,13.66
2022-09-24T12:25:45.753Z,13.74
2022-09-24T12:28:58.665Z,13.92
2022-09-24T12:32:11.445Z,14.08
2022-09-24T12:35:37.397Z,13.84
2022-09-24T12:38:47.062Z,13.91
2022-09-24T12:42:00.078Z,13.81
2022-09-24T12:45:02.897Z,13.96
2022-09-24T12:48:04.389Z,13.99
2022-09-24T12:51:07.865Z,13.82
2022-09-24T12:54:27.225Z,13.79
2022-09-24T12:57:34.760Z,13.71
2022-09-24T13:00:36.183Z,13.72
2022-09-24T13:03:44.580Z,13.76
2022-09-24T13:06:48.306Z,13.81
2022-09-24T13:09:49.621Z,13.81
2022-09-24T13:12:51.266Z,13.73
2022-09-24T13:16:04.600Z,13.75
2022-09-24T13:19:17.935Z,13.58
2022-09-24T13:22:35.779Z,13.80
2022-09-24T13:25:37.107Z,13.89
2022-09-24T13:29:05.673Z,13.98
2022-09-24T13:32:18.434Z,14.19
2022-09-24T13:35:25.815Z,14.38
2022-09-24T13:38:34.692Z,14.42
2022-09-24T13:41:48.615Z,14.53
2022-09-24T13:44:58.997Z,14.29
2022-09-24T13:48:05.372Z,14.02
2022-09-24T13:51:12.656Z,13.89
2022-09-24T13:54:33.844Z,13.82
2022-09-24T13:57:43.817Z,13.86
2022-09-24T14:00:45.200Z,13.93
2022-09-24T14:04:02.648Z,13.97
2022-09-24T14:07:03.997Z,13.94
2022-09-24T14:10:11.845Z,13.95
2022-09-24T14:13:25.069Z,14.00
2022-09-24T14:16:26.632Z,13.95
2022-09-24T14:19:28.055Z,14.00
2022-09-24T14:22:36.438Z,14.02
2022-09-24T14:25:38.586Z,14.05
2022-09-24T14:28:40.118Z,13.99
2022-09-24T14:31:51.637Z,13.93
2022-09-24T14:34:55.865Z,14.09
2022-09-24T14:38:13.981Z,14.04
2022-09-24T14:41:19.978Z,13.99
2022-09-24T14:44:26.714Z,13.96
2022-09-24T14:47:30.983Z,13.92
2022-09-24T14:50:38.178Z,13.90
2022-09-24T14:53:39.534Z,13.92
2022-09-24T14:56:40.858Z,14.02
2022-09-24T14:59:42.259Z,14.04
2022-09-24T15:02:43.764Z,14.05
2022-09-24T15:05:45.431Z,13.98
2022-09-24T15:09:27.276Z,13.76
2022-09-24T15:12:31.787Z,13.78
2022-09-24T15:15:33.182Z,13.80
2022-09-24T15:18:34.595Z,13.79
2022-09-24T15:21:36.368Z,13.86
2022-09-24T15:24:37.679Z,13.83
2022-09-24T15:27:40.271Z,13.85
2022-09-24T15:30:41.697Z,13.94
2022-09-24T15:33:43.076Z,13.95
2022-09-24T15:36:44.452Z,13.92
2022-09-24T15:39:47.100Z,13.91
2022-09-24T15:42:49.923Z,13.81
2022-09-24T15:45:51.628Z,13.78
2022-09-24T15:48:53.132Z,13.79
2022-09-24T15:52:08.861Z,13.81
2022-09-24T15:55:17.521Z,13.82
2022-09-24T15:58:19.720Z,13.83
2022-09-24T16:01:21.650Z,13.80
2022-09-24T16:04:22.974Z,13.72
2022-09-24T16:07:25.332Z,13.66
2022-09-24T16:10:26.675Z,13.65
2022-09-24T16:13:28.142Z,13.65
2022-09-24T16:16:29.494Z,13.61
2022-09-24T16:19:30.891Z,13.59
2022-09-24T16:22:32.273Z,13.54
2022-09-24T16:25:33.597Z,13.48
2022-09-24T16:28:35.414Z,13.45
2022-09-24T16:31:36.871Z,13.39
2022-09-24T16:34:38.254Z,13.36
2022-09-24T16:37:40.898Z,13.33
2022-09-24T16:40:42.336Z,13.26
2022-09-24T16:43:43.802Z,13.26
2022-09-24T16:46:45.248Z,13.23
2022-09-24T16:49:47.288Z,13.19
2022-09-24T16:52:48.611Z,13.12
2022-09-24T16:55:49.935Z,13.08
2022-09-24T16:58:51.770Z,13.07
2022-09-24T17:01:53.115Z,13.06
2022-09-24T17:04:54.507Z,13.03
2022-09-24T17:07:55.837Z,12.99
2022-09-24T17:11:00.495Z,13.00
2022-09-24T17:14:02.721Z,13.03
2022-09-24T17:17:04.700Z,13.01
2022-09-24T17:20:06.600Z,13.00
2022-09-24T17:23:07.977Z,12.98
2022-09-24T17:26:12.091Z,12.95
2022-09-24T17:29:13.496Z,12.93
2022-09-24T17:32:14.835Z,12.92
2022-09-24T17:35:16.295Z,12.90
2022-09-24T17:38:17.661Z,12.89
2022-09-24T17:41:19.300Z,12.89
2022-09-24T17:44:20.693Z,12.92
2022-09-24T17:47:22.062Z,12.91
2022-09-24T17:50:23.410Z,12.90
2022-09-24T17:53:25.834Z,12.92
2022-09-24T17:56:28.931Z,12.88
2022-09-24T17:59:30.282Z,12.89
2022-09-24T18:02:31.694Z,12.86
2022-09-24T18:05:33.121Z,12.86
2022-09-24T18:08:44.845Z,12.84
2022-09-24T18:11:49.285Z,12.83
2022-09-24T18:14:50.617Z,12.80
2022-09-24T18:17:52.321Z,12.79
2022-09-24T18:20:56.826Z,12.80
2022-09-24T18:24:00.002Z,12.78
2022-09-24T18:27:01.338Z,12.73
2022-09-24T18:30:02.751Z,12.76
2022-09-24T18:33:04.112Z,12.75
2022-09-24T18:36:08.515Z,12.74
2022-09-24T18:39:11.874Z,12.75
2022-09-24T18:42:13.316Z,12.77
2022-09-24T18:45:14.767Z,12.77
2022-09-24T18:48:16.111Z,12.77
2022-09-24T18:51:20.231Z,12.78
2022-09-24T18:54:21.551Z,12.71
2022-09-24T18:57:22.922Z,12.73
2022-09-24T19:00:24.252Z,12.71
2022-09-24T19:03:26.943Z,12.72
2022-09-24T19:06:29.527Z,12.71
2022-09-24T19:09:30.916Z,12.66
2022-09-24T19:12:32.310Z,12.65
2022-09-24T19:15:38.031Z,12.65
2022-09-24T19:18:40.814Z,12.63
2022-09-24T19:21:42.159Z,12.60
2022-09-24T19:24:43.533Z,12.62
2022-09-24T19:27:44.866Z,12.62
2022-09-24T19:30:47.469Z,12.61
2022-09-24T19:33:50.224Z,12.57
2022-09-24T19:36:51.566Z,12.53
2022-09-24T19:39:52.925Z,12.59
2022-09-24T19:42:54.276Z,12.60
2022-09-24T19:46:03.798Z,12.61
2022-09-24T19:49:05.525Z,12.62
2022-09-24T19:52:06.850Z,12.62
2022-09-24T19:55:08.629Z,12.63
2022-09-24T19:58:10.350Z,12.66
2022-09-24T20:01:17.121Z,12.65
2022-09-24T20:04:19.023Z,12.66
2022-09-24T20:07:20.354Z,12.66
2022-09-24T20:10:21.687Z,12.67
2022-09-24T20:13:23.010Z,12.67
2022-09-24T20:16:27.155Z,12.69
2022-09-24T20:19:28.481Z,12.70
2022-09-24T20:22:32.214Z,12.73
2022-09-24T20:25:34.898Z,12.74
2022-09-24T20:28:36.340Z,12.72
2022-09-24T20:31:41.715Z,12.77
2022-09-24T20:34:43.063Z,12.74
2022-09-24T20:37:44.454Z,12.73
2022-09-24T20:40:45.828Z,12.70
2022-09-24T20:43:47.284Z,12.69
2022-09-24T20:46:48.628Z,12.66
2022-09-24T20:49:49.955Z,12.66
2022-09-24T20:52:51.304Z,12.64
2022-09-24T20:55:53.660Z,12.62
2022-09-24T20:58:54.975Z,12.63
2022-09-24T21:01:56.647Z,12.66
2022-09-24T21:04:58.020Z,12.65
2022-09-24T21:07:59.363Z,12.58
2022-09-24T21:11:02.789Z,12.56
2022-09-24T21:14:04.196Z,12.50
2022-09-24T21:17:05.585Z,12.49
2022-09-24T21:20:07.726Z,12.49
2022-09-24T21:23:09.070Z,12.53
2022-09-24T21:26:18.636Z,12.47
2022-09-24T21:29:20.181Z,12.42
2022-09-24T21:32:21.522Z,12.41
2022-09-24T21:35:22.890Z,12.38
2022-09-24T21:38:24.634Z,12.33
2022-09-24T21:41:34.687Z,12.30
2022-09-24T21:44:36.197Z,12.25
2022-09-24T21:47:37.593Z,12.23
2022-09-24T21:50:40.441Z,12.20
2022-09-24T21:53:41.881Z,12.16
2022-09-24T21:56:43.709Z,12.15
2022-09-24T21:59:45.042Z,12.14
2022-09-24T22:02:46.426Z,12.14
2022-09-24T22:05:48.514Z,12.14
2022-09-24T22:08:49.859Z,12.13
2022-09-24T22:11:51.195Z,12.15
2022-09-24T22:14:52.561Z,12.13
2022-09-24T22:17:53.878Z,12.11
2022-09-24T22:20:56.929Z,12.14
2022-09-24T22:23:58.600Z,12.12
2022-09-24T22:27:00.004Z,12.13
2022-09-24T22:30:01.341Z,12.14
2022-09-24T22:33:02.711Z,12.12
2022-09-24T22:36:04.673Z,12.12
2022-09-24T22:39:06.619Z,12.08
2022-09-24T22:42:07.951Z,12.08
2022-09-24T22:45:09.801Z,12.08
2022-09-24T22:48:11.119Z,12.08
2022-09-24T22:51:13.220Z,12.07
2022-09-24T22:54:14.928Z,12.06
2022-09-24T22:57:16.247Z,12.03
2022-09-24T23:00:17.585Z,12.02
2022-09-24T23:03:18.977Z,12.01
2022-09-24T23:06:21.073Z,12.04
2022-09-24T23:09:22.402Z,12.04
2022-09-24T23:12:23.788Z,12.09
2022-09-24T23:15:25.177Z,12.08
2022-09-24T23:18:26.520Z,12.08
2022-09-24T23:21:30.274Z,12.09
2022-09-24T23:24:31.631Z,12.06
2022-09-24T23:27:32.989Z,12.04
2022-09-24T23:30:34.421Z,12.03
2022-09-24T23:33:37.621Z,12.07
2022-09-24T23:36:38.958Z,12.07
2022-09-24T23:39:40.292Z,12.10
2022-09-24T23:42:41.650Z,12.09
2022-09-24T23:45:43.365Z,12.12
2022-09-24T23:48:44.822Z,12.09
2022-09-24T23:51:46.134Z,12.09
2022-09-24T23:54:47.488Z,12.13
2022-09-24T23:57:48.790Z,12.17
